Latest Weather Observations for Bulman

IDD60801

Issued at 11:31 pm CST Saturday 25 June 2016 (issued every 30 minutes, with the page automatically refreshed every 10 minutes)

About weather observations | Map of weather stations | Latest weather observations for NT | Other Formats
Station Details ID: 014627 Name: BULMAN Lat: -13.67 Lon: 134.34 Height: 103.4 m
Data from the previous 72 hours. | See also: Recent months at Bulman
Date/Time
CST
Temp
°C
App
Temp
°C
Dew
Point
°C
Rel
Hum
%
Delta-T
°C
Wind Press
QNH
hPa
Press
MSL
hPa
Rain since
9am
mm
Dir  Spd
km/h
Gust
km/h
Spd
kts
Gust
kts
25/11:30pm 23.5 25.9 20.0 81 2.3 ESE 7 13 4 7 1014.2 1013.8 0.0
25/11:00pm 24.0 26.1 20.1 79 2.5 SE 9 13 5 7 1014.3 1013.9 0.0
25/10:30pm 24.4 26.7 19.9 76 2.9 SE 7 13 4 7 1014.4 1014.0 0.0
25/10:00pm 25.0 26.5 19.8 73 3.4 SE 11 17 6 9 1014.4 1014.0 0.0
25/09:30pm 25.4 27.6 19.5 70 3.8 ESE 7 11 4 6 1014.3 1013.9 0.0
25/09:00pm 25.9 27.9 19.1 66 4.4 SE 7 13 4 7 1014.3 1013.9 0.0
25/08:30pm 26.5 28.0 18.9 63 4.9 SE 9 13 5 7 1014.1 1013.7 0.0
25/08:00pm 27.2 28.3 18.8 60 5.4 SE 11 17 6 9 1013.6 1013.2 0.0
25/07:30pm 27.9 28.5 18.6 57 6.0 ESE 13 17 7 9 1013.4 1013.0 0.0
25/07:00pm 28.3 29.9 17.8 53 6.7 ESE 6 9 3 5 1012.9 1012.5 0.0
25/06:30pm 29.1 30.0 17.6 50 7.3 ESE 9 13 5 7 1012.5 1012.1 0.0
25/06:00pm 30.0 30.7 17.1 46 8.2 ESE 9 13 5 7 1012.2 1011.8 0.0
25/05:30pm 30.8 31.0 16.8 43 8.9 ESE 11 17 6 9 1011.9 1011.5 0.0
25/05:00pm 31.4 31.3 16.9 41 9.2 ESE 13 24 7 13 1011.6 1011.2 0.0
25/04:30pm 31.3 30.9 16.1 40 9.5 ESE 13 22 7 12 1011.6 1011.2 0.0
25/04:00pm 32.3 31.3 15.7 36 10.4 ESE 15 22 8 12 1011.4 1011.0 0.0
25/03:30pm 31.6 31.4 16.7 40 9.4 E 13 22 7 12 1011.5 1011.1 0.0
25/03:00pm 32.7 32.8 16.5 37 10.3 E 11 20 6 11 1011.8 1011.4 0.0
25/02:30pm 32.4 31.7 16.3 38 10.2 ESE 15 26 8 14 1012.0 1011.6 0.0
25/02:00pm 31.5 30.8 16.3 40 9.6 ENE 15 26 8 14 1012.5 1012.1 0.0
25/01:30pm 31.5 31.4 17.0 41 9.2 E 13 22 7 12 1012.7 1012.3 0.0
25/01:00pm 32.0 31.5 15.9 38 10.1 ENE 13 24 7 13 1013.1 1012.7 0.0
25/12:30pm 31.8 31.7 16.1 38 9.9 E 11 19 6 10 1013.6 1013.2 0.0
25/12:00pm 30.3 29.8 17.0 44 8.4 ESE 15 24 8 13 1014.1 1013.7 0.0
25/11:30am 30.0 29.4 17.5 47 8.0 E 17 28 9 15 1014.5 1014.1 0.0
25/11:00am 29.1 30.0 20.0 58 6.0 ENE 15 26 8 14 1014.8 1014.4 0.0
25/10:30am 27.4 27.9 20.0 64 4.8 E 17 28 9 15 1015.0 1014.6 0.0
25/10:00am 26.2 26.8 20.3 70 3.9 E 17 26 9 14 1015.2 1014.8 0.0
25/09:30am 26.3 27.7 21.1 73 3.4 ESE 15 24 8 13 1015.2 1014.8 0.0
25/09:00am 25.3 27.4 21.0 77 2.8 E 11 17 6 9 1014.9 1014.5 0.0
25/08:30am 24.2 27.9 21.5 85 1.8 ENE 4 15 2 8 1014.6 1014.2 0.0
25/08:00am 21.7 25.8 20.7 94 0.7 CALM 0 0 0 0 1014.5 1014.1 0.0
25/07:30am 20.0 23.3 19.0 94 0.6 CALM 0 0 0 0 1014.1 1013.7 0.0
25/07:00am 20.2 23.5 19.2 94 0.6 CALM 0 0 0 0 1013.7 1013.3 0.0
25/06:30am 20.4 23.8 19.4 94 0.6 CALM 0 0 0 0 1013.3 1012.9 0.0
25/06:00am 20.6 24.1 19.6 94 0.6 CALM 0 0 0 0 1013.1 1012.7 0.0
25/05:30am 20.9 23.3 19.7 93 0.8 WNW 6 7 3 4 1013.0 1012.6 0.0
25/05:00am 21.3 25.1 20.1 93 0.8 CALM 0 6 0 3 1012.8 1012.4 0.0
25/04:30am 21.6 25.4 20.2 92 0.9 CALM 0 4 0 2 1012.7 1012.3 0.0
25/04:00am 22.2 25.1 20.7 91 1.0 S 6 7 3 4 1012.9 1012.5 0.0
25/03:30am 22.9 26.2 21.4 91 1.0 SSE 6 7 3 4 1013.2 1012.8 0.0
25/03:00am 23.2 26.5 21.5 90 1.1 SE 6 9 3 5 1013.4 1013.0 0.0
25/02:30am 23.4 26.5 21.5 89 1.3 SE 7 11 4 6 1013.4 1013.0 0.0
25/02:00am 23.3 26.9 21.2 88 1.4 SE 4 7 2 4 1013.4 1013.0 0.0
25/01:30am 23.5 26.8 20.8 85 1.8 SE 4 9 2 5 1013.6 1013.2 0.0
25/01:00am 23.8 26.6 20.5 82 2.2 SE 6 9 3 5 1013.5 1013.1 0.0
25/12:30am 24.1 26.7 20.0 78 2.7 SE 6 9 3 5 1013.7 1013.3 0.0
25/12:00am 24.5 26.7 19.6 74 3.2 ESE 7 11 4 6 1013.6 1013.2 0.0
 
Date/Time
CST
Temp
°C
App
Temp
°C
Dew
Point
°C
Rel
Hum
%
Delta-T
°C
Wind Press
QNH
hPa
Press
MSL
hPa
Rain since
9am
mm
Dir  Spd
km/h
Gust
km/h
Spd
kts
Gust
kts
24/11:30pm 24.9 26.7 18.8 69 3.9 ESE 7 13 4 7 1013.6 1013.2 0.0
24/11:00pm 25.5 26.9 18.7 66 4.3 SE 9 17 5 9 1013.5 1013.1 0.0
24/10:30pm 26.0 27.0 18.7 64 4.7 SE 11 17 6 9 1013.4 1013.0 0.0
24/10:00pm 26.7 27.4 18.8 62 5.1 SE 13 22 7 12 1013.4 1013.0 0.0
24/09:30pm 27.4 28.1 18.9 59 5.5 ESE 13 22 7 12 1013.1 1012.7 0.0
24/09:00pm 27.9 28.1 18.6 57 6.0 SE 15 24 8 13 1012.7 1012.3 0.0
24/08:30pm 28.6 29.1 18.4 54 6.6 SE 13 20 7 11 1012.2 1011.8 0.0
24/08:00pm 28.5 30.0 17.7 52 6.9 SE 6 11 3 6 1012.1 1011.7 0.0
24/07:30pm 28.4 30.4 17.0 50 7.2 SE 2 7 1 4 1011.8 1011.4 0.0
24/07:00pm 29.9 31.4 16.7 45 8.3 ESE 4 9 2 5 1011.5 1011.1 0.0
24/06:30pm 31.1 32.1 16.3 41 9.3 ESE 6 9 3 5 1011.3 1010.9 0.0
24/06:00pm 32.0 32.1 15.5 37 10.3 ESE 9 15 5 8 1011.1 1010.7 0.0
24/05:30pm 32.8 32.6 15.8 36 10.7 E 11 19 6 10 1011.0 1010.6 0.0
24/05:00pm 33.2 32.8 15.2 33 11.2 E 11 19 6 10 1010.7 1010.3 0.0
24/04:30pm 33.5 32.7 15.0 32 11.5 ESE 13 17 7 9 1010.6 1010.2 0.0
24/04:00pm 34.0 33.5 15.0 32 11.8 E 11 20 6 11 1010.4 1010.0 0.0
24/03:30pm 34.4 33.1 14.8 30 12.2 ENE 15 24 8 13 1010.6 1010.2 0.0
24/03:00pm 34.5 33.4 14.4 30 12.4 E 13 20 7 11 1010.8 1010.4 0.0
24/02:30pm 34.4 33.5 13.8 29 12.6 ESE 11 20 6 11 1011.1 1010.7 0.0
24/02:00pm 34.1 32.7 14.6 31 12.1 ESE 15 20 8 11 1011.2 1010.8 0.0
24/01:30pm 32.7 31.2 14.3 32 11.3 ESE 15 22 8 12 1011.7 1011.3 0.0
24/01:00pm 32.7 30.8 14.3 32 11.3 SE 17 26 9 14 1012.3 1011.9 0.0
24/12:30pm 32.0 29.4 13.7 33 11.1 SE 20 30 11 16 1012.9 1012.5 0.0
24/12:00pm 31.4 30.6 16.2 40 9.5 ESE 15 20 8 11 1013.5 1013.1 0.0
24/11:30am 30.6 30.6 18.0 47 8.1 SE 15 20 8 11 1014.2 1013.8 0.0
24/11:00am 29.8 30.9 18.9 52 7.1 E 11 19 6 10 1014.5 1014.1 0.0
24/10:30am 28.4 29.7 18.5 55 6.4 SE 9 15 5 8 1014.5 1014.1 0.0
24/10:00am 27.1 30.3 20.4 66 4.4 NE 4 9 2 5 1014.5 1014.1 0.0
24/09:30am 26.1 28.9 20.9 73 3.4 ESE 7 13 4 7 1014.5 1014.1 0.0
24/09:00am 24.7 28.7 20.6 78 2.7 CALM 0 0 0 0 1014.4 1014.0 0.0
24/08:30am 21.8 25.1 19.2 85 1.7 CALM 0 0 0 0 1014.1 1013.7 0.0
24/08:00am 20.1 23.3 18.8 92 0.8 CALM 0 0 0 0 1013.5 1013.1 0.0
24/07:30am 19.0 21.9 18.2 95 0.5 CALM 0 0 0 0 1013.2 1012.8 0.0
24/07:00am 18.6 21.2 17.6 94 0.6 CALM 0 6 0 3 1012.9 1012.5 0.0
24/06:30am 18.7 21.3 17.4 92 0.8 CALM 0 0 0 0 1012.9 1012.5 0.0
24/06:00am 19.2 21.8 17.5 90 1.0 CALM 0 0 0 0 1012.8 1012.4 0.0
24/05:30am 19.8 22.7 18.1 90 1.1 CALM 0 0 0 0 1012.6 1012.2 0.0
24/05:00am 20.3 23.3 18.4 89 1.2 CALM 0 0 0 0 1012.5 1012.1 0.0
24/04:30am 20.8 23.1 18.6 87 1.4 SSW 4 7 2 4 1012.1 1011.7 0.0
24/04:00am 21.1 24.1 18.5 85 1.6 CALM 0 0 0 0 1012.4 1012.0 0.0
24/03:30am 21.4 24.7 19.0 86 1.5 CALM 0 0 0 0 1012.5 1012.1 0.0
24/03:00am 21.8 25.0 18.8 83 1.9 CALM 0 0 0 0 1012.6 1012.2 0.0
24/02:30am 22.0 25.3 19.0 83 1.9 CALM 0 0 0 0 1012.6 1012.2 0.0
24/02:00am 22.1 25.3 18.9 82 2.0 CALM 0 0 0 0 1012.6 1012.2 0.0
24/01:30am 22.3 25.5 18.9 81 2.2 CALM 0 0 0 0 1013.0 1012.6 0.0
24/01:00am 22.9 26.0 18.7 77 2.7 CALM 0 0 0 0 1013.2 1012.8 0.0
24/12:30am 23.4 26.6 18.9 76 2.9 CALM 0 0 0 0 1013.1 1012.7 0.0
24/12:00am 24.3 27.5 18.9 72 3.4 CALM 0 0 0 0 1013.0 1012.6 0.0
 
Date/Time
CST
Temp
°C
App
Temp
°C
Dew
Point
°C
Rel
Hum
%
Delta-T
°C
Wind Press
QNH
hPa
Press
MSL
hPa
Rain since
9am
mm
Dir  Spd
km/h
Gust
km/h
Spd
kts
Gust
kts
23/11:30pm 25.3 28.0 19.4 70 3.8 SSE 4 7 2 4 1012.8 1012.4 0.0
23/11:00pm 26.3 28.6 19.9 68 4.2 ESE 7 9 4 5 1012.8 1012.4 0.0
23/10:30pm 26.5 28.8 19.9 67 4.3 ESE 7 13 4 7 1012.8 1012.4 0.0
23/10:00pm 26.7 28.9 19.3 64 4.8 SE 6 11 3 6 1012.4 1012.0 0.0
23/09:30pm 26.8 28.7 18.6 60 5.3 SE 6 9 3 5 1012.2 1011.8 0.0
23/09:00pm 26.8 28.7 17.6 57 5.8 SE 4 9 2 5 1012.0 1011.6 0.0
23/08:30pm 26.8 28.7 17.6 57 5.8 SE 4 15 2 8 1011.6 1011.2 0.0
23/08:00pm 25.9 28.4 17.3 59 5.4 CALM 0 0 0 0 1010.9 1010.5 0.0
23/07:30pm 26.6 29.0 17.1 56 6.0 CALM 0 0 0 0 1010.6 1010.2 0.0
23/07:00pm 27.8 29.7 16.7 50 6.9 SW 2 7 1 4 1010.1 1009.7 0.0
23/06:30pm 29.6 31.6 16.1 44 8.4 CALM 0 0 0 0 1009.9 1009.5 0.0
23/06:00pm 31.8 32.8 15.3 37 10.3 SE 4 7 2 4 1009.8 1009.4 0.0
23/05:30pm 33.1 34.0 15.1 33 11.2 SSE 4 9 2 5 1009.5 1009.1 0.0
23/05:00pm 33.5 34.0 15.5 34 11.3 E 7 13 4 7 1009.4 1008.9 0.0
23/04:30pm 33.7 34.3 15.2 33 11.6 ENE 6 15 3 8 1009.1 1008.6 0.0
23/04:00pm 33.4 33.5 15.4 34 11.3 ESE 9 15 5 8 1009.0 1008.5 0.0
23/03:30pm 33.4 34.4 16.3 36 10.8 SSW 6 11 3 6 1009.2 1008.7 0.0
23/03:00pm 32.8 33.7 16.2 37 10.5 S 6 11 3 6 1009.3 1008.8 0.0
23/02:30pm 33.1 34.2 16.5 37 10.5 NNE 6 9 3 5 1009.5 1009.1 0.0
23/02:00pm 32.6 33.6 16.4 37 10.2 SSE 6 19 3 10 1010.1 1009.7 0.0
23/01:30pm 32.0 32.9 17.5 42 9.3 NNE 9 17 5 9 1010.7 1010.3 0.0
23/01:00pm 31.5 32.5 17.8 44 8.8 WSW 9 17 5 9 1011.2 1010.8 0.0
23/12:30pm 30.6 31.4 17.3 45 8.5 ESE 9 17 5 9 1012.1 1011.7 0.0
23/12:00pm 31.3 32.8 19.0 48 8.0 E 9 19 5 10 1012.7 1012.3 0.0
23/11:30am 30.4 31.3 18.5 49 7.7 SE 11 19 6 10 1013.4 1013.0 0.0
23/11:00am 29.4 29.8 18.2 51 7.2 E 13 19 7 10 1013.6 1013.2 0.0
23/10:30am 29.1 30.8 19.4 55 6.3 ESE 9 15 5 8 1013.7 1013.3 0.0
23/10:00am 27.9 30.0 19.4 60 5.5 ESE 7 11 4 6 1013.9 1013.5 0.0
23/09:30am 25.8 27.3 19.0 66 4.4 ENE 9 13 5 7 1013.9 1013.5 0.0
23/09:00am 24.6 26.8 18.3 68 4.0 NE 4 11 2 6 1013.9 1013.5 0.0
23/08:30am 22.5 24.2 15.1 63 4.4 CALM 0 0 0 0 1013.7 1013.3 0.0
23/08:00am 20.1 21.8 15.3 74 2.8 CALM 0 0 0 0 1013.3 1012.9 0.0
23/07:30am 16.7 18.3 14.9 89 1.0 CALM 0 0 0 0 1013.0 1012.6 0.0
23/07:00am 15.9 17.2 14.1 89 1.0 CALM 0 0 0 0 1012.6 1012.2 0.0
23/06:30am 15.8 17.1 14.0 89 1.0 CALM 0 0 0 0 1012.3 1011.9 0.0
23/06:00am 15.9 17.1 13.9 88 1.1 CALM 0 0 0 0 1012.1 1011.7 0.0
23/05:30am 16.0 17.2 13.8 87 1.2 CALM 0 0 0 0 1011.9 1011.5 0.0
23/05:00am 16.3 17.5 13.8 85 1.4 CALM 0 0 0 0 1011.7 1011.3 0.0
23/04:30am 16.7 17.9 13.8 83 1.6 CALM 0 0 0 0 1011.8 1011.4 0.0
23/04:00am 17.3 18.5 13.8 80 2.0 CALM 0 0 0 0 1011.8 1011.4 0.0
23/03:30am 17.9 19.2 14.2 79 2.1 CALM 0 0 0 0 1011.9 1011.5 0.0
23/03:00am 18.4 19.8 14.5 78 2.3 CALM 0 0 0 0 1012.2 1011.8 0.0
23/02:30am 18.6 19.7 14.5 77 2.4 W 2 6 1 3 1012.6 1012.2 0.0
23/02:00am 18.9 19.2 14.6 76 2.5 SSW 6 7 3 4 1012.9 1012.5 0.0
23/01:30am 19.3 19.9 14.3 73 2.9 SSW 4 6 2 3 1013.1 1012.7 0.0
23/01:00am 20.2 21.7 14.6 70 3.3 CALM 0 0 0 0 1013.3 1012.9 0.0
23/12:30am 21.3 22.6 14.2 64 4.2 CALM 0 0 0 0 1013.3 1012.9 0.0
23/12:00am 23.2 23.3 14.5 58 5.2 SE 7 11 4 6 1013.4 1013.0 0.0

Other Formats:

Comma delimited format used in spreadsheet applications
http://www.bom.gov.au/fwo/IDD60801/IDD60801.94143.axf

JavaScript Object Notation format (JSON) in row-major order
http://www.bom.gov.au/fwo/IDD60801/IDD60801.94143.json